Search for airport 
image banner adimage banner adimage banner ad
image banner ad

SCBC - Cacique Blanco

Located in Lago Verde, Chile

ICAO - SCBC, IATA -

Data provided by Airmate  

General information

Coordinates: S44°13'46" W71°51'6"
Elevation is 750 feet MSL.
Magnetic variation is 9° East
View others Airports in Aisén del General Carlos Ibañez

Operational data

Special qualification required
Current time UTC:
Current local time:
Weather at : SCAP - Alto Palena ( 69 km )
METAR: SCAP 060000Z AUTO 00000KT 9999 ////// 02/01 Q1029
View NOTAMs / SUP AIP / TFR affecting this airport [VIEW]
Communications frequencies: [VIEW]

Runways:

RWY identifierQFULength (ft)Width (ft)SurfaceLDA (ft)
22229°296066DIRT
0449°296066DIRT

Airport contact information

Address: Lago Verde Chile

Satellite view of SCBC